Time,TemperatureF,DewpointF,PressureIn,WindDirection,WindDirectionDegrees,WindSpeedMPH,WindSpeedGustMPH,Humidity,HourlyPrecipIn,Conditions,Clouds,dailyrainin,SoftwareType,DateUTC
2013-02-25 00:02:00,39.4,38.0,30.23,North,360,0.0,0.0,93,0.00,,,0.00,weatherlink.com 1.10,2013-02-25 08:02:00,
2013-02-25 00:17:00,39.1,37.0,30.24,North,360,0.0,1.0,93,0.00,,,0.00,weatherlink.com 1.10,2013-02-25 08:17:00,
2013-02-25 00:32:00,38.7,37.0,30.24,North,359,0.0,0.0,94,0.00,,,0.00,weatherlink.com 1.10,2013-02-25 08:32:00,
2013-02-25 00:47:00,38.5,37.0,30.24,NNE,18,0.0,1.0,94,0.00,,,0.00,weatherlink.com 1.10,2013-02-25 08:47:00,
2013-02-25 01:02:00,38.3,37.0,30.24,NNE,18,0.0,0.0,94,0.00,,,0.00,weatherlink.com 1.10,2013-02-25 09:02:00,
2013-02-25 01:17:00,38.0,37.0,30.24,NNE,17,0.0,1.0,94,0.00,,,0.00,weatherlink.com 1.10,2013-02-25 09:17:00,
2013-02-25 01:32:00,37.7,36.0,30.25,NNE,17,0.0,0.0,95,0.00,,,0.00,weatherlink.com 1.10,2013-02-25 09:32:00,
2013-02-25 01:48:00,37.5,36.0,30.25,NE,44,0.0,0.0,95,0.00,,,0.00,weatherlink.com 1.10,2013-02-25 09:48:00,
2013-02-25 02:03:00,37.3,36.0,30.25,ESE,119,0.0,0.0,95,0.00,,,0.00,weatherlink.com 1.10,2013-02-25 10:03:00,
2013-02-25 02:18:00,37.1,36.0,30.25,ESE,117,0.0,0.0,95,0.00,,,0.00,weatherlink.com 1.10,2013-02-25 10:18:00,
2013-02-25 02:33:00,36.9,36.0,30.25,ESE,118,0.0,0.0,95,0.00,,,0.00,weatherlink.com 1.10,2013-02-25 10:33:00,
2013-02-25 02:48:00,36.7,35.0,30.25,ESE,118,0.0,0.0,95,0.00,,,0.00,weatherlink.com 1.10,2013-02-25 10:48:00,
2013-02-25 03:03:00,36.5,35.0,30.25,ESE,118,0.0,0.0,95,0.00,,,0.00,weatherlink.com 1.10,2013-02-25 11:03:00,
2013-02-25 03:18:00,36.4,35.0,30.24,ESE,122,0.0,0.0,95,0.00,,,0.00,weatherlink.com 1.10,2013-02-25 11:18:00,
2013-02-25 03:33:00,36.2,35.0,30.23,ESE,122,0.0,0.0,96,0.00,,,0.00,weatherlink.com 1.10,2013-02-25 11:33:00,
2013-02-25 03:48:00,36.1,35.0,30.23,ESE,123,0.0,0.0,96,0.00,,,0.00,weatherlink.com 1.10,2013-02-25 11:48:00,
2013-02-25 04:03:00,36.1,35.0,30.23,ESE,122,0.0,0.0,96,0.00,,,0.00,weatherlink.com 1.10,2013-02-25 12:03:00,
2013-02-25 04:18:00,36.1,35.0,30.25,ESE,122,0.0,0.0,96,0.00,,,0.00,weatherlink.com 1.10,2013-02-25 12:18:00,
2013-02-25 04:33:00,36.0,35.0,30.24,ESE,122,0.0,0.0,96,0.00,,,0.00,weatherlink.com 1.10,2013-02-25 12:33:00,
2013-02-25 04:48:00,36.0,35.0,30.24,ESE,122,0.0,0.0,96,0.00,,,0.00,weatherlink.com 1.10,2013-02-25 12:48:00,
2013-02-25 05:03:00,36.0,35.0,30.25,ESE,122,0.0,0.0,96,0.00,,,0.00,weatherlink.com 1.10,2013-02-25 13:03:00,
2013-02-25 05:18:00,35.8,35.0,30.25,ESE,122,0.0,0.0,96,0.00,,,0.00,weatherlink.com 1.10,2013-02-25 13:18:00,
2013-02-25 05:33:00,35.6,35.0,30.26,ESE,123,0.0,0.0,96,0.00,,,0.00,weatherlink.com 1.10,2013-02-25 13:33:00,
2013-02-25 05:48:00,35.3,34.0,30.27,ESE,123,0.0,0.0,96,0.00,,,0.00,weatherlink.com 1.10,2013-02-25 13:48:00,
2013-02-25 06:03:00,35.1,34.0,30.27,ESE,123,0.0,0.0,96,0.00,,,0.00,weatherlink.com 1.10,2013-02-25 14:03:00,
2013-02-25 06:18:00,34.9,34.0,30.27,ESE,123,0.0,0.0,96,0.00,,,0.00,weatherlink.com 1.10,2013-02-25 14:18:00,
2013-02-25 06:33:00,34.7,34.0,30.27,ESE,123,0.0,0.0,96,0.00,,,0.00,weatherlink.com 1.10,2013-02-25 14:33:00,
2013-02-25 06:48:00,34.5,34.0,30.27,ESE,123,0.0,0.0,96,0.00,,,0.00,weatherlink.com 1.10,2013-02-25 14:48:00,
2013-02-25 07:03:00,34.4,33.0,30.27,ESE,122,0.0,0.0,96,0.00,,,0.00,weatherlink.com 1.10,2013-02-25 15:03:00,
2013-02-25 07:18:00,34.3,33.0,30.27,ESE,123,0.0,0.0,96,0.00,,,0.00,weatherlink.com 1.10,2013-02-25 15:18:00,
2013-02-25 07:33:00,34.5,34.0,30.27,ESE,122,0.0,0.0,97,0.00,,,0.00,weatherlink.com 1.10,2013-02-25 15:33:00,
2013-02-25 07:48:00,34.5,34.0,30.27,South,190,0.0,0.0,97,0.00,,,0.00,weatherlink.com 1.10,2013-02-25 15:48:00,
2013-02-25 08:03:00,34.7,34.0,30.27,South,190,0.0,0.0,97,0.00,,,0.00,weatherlink.com 1.10,2013-02-25 16:03:00,
2013-02-25 08:18:00,35.1,34.0,30.27,South,191,0.0,0.0,97,0.00,,,0.00,weatherlink.com 1.10,2013-02-25 16:18:00,
2013-02-25 08:33:00,35.7,35.0,30.27,ESE,120,0.0,0.0,97,0.00,,,0.00,weatherlink.com 1.10,2013-02-25 16:33:00,
2013-02-25 08:48:00,36.2,36.0,30.26,ESE,120,0.0,0.0,97,0.00,,,0.00,weatherlink.com 1.10,2013-02-25 16:48:00,
2013-02-25 09:03:00,37.0,37.0,30.25,North,6,0.0,0.0,98,0.00,,,0.00,weatherlink.com 1.10,2013-02-25 17:03:00,
2013-02-25 09:18:00,38.3,38.0,30.25,North,6,0.0,0.0,98,0.00,,,0.00,weatherlink.com 1.10,2013-02-25 17:18:00,
2013-02-25 09:33:00,39.7,39.0,30.25,NNE,13,0.0,0.0,98,0.00,,,0.00,weatherlink.com 1.10,2013-02-25 17:33:00,
2013-02-25 09:48:00,41.1,41.0,30.25,NNE,13,0.0,0.0,98,0.00,,,0.00,weatherlink.com 1.10,2013-02-25 17:48:00,
2013-02-25 10:04:00,43.1,43.0,30.24,SW,219,0.0,0.0,98,0.00,,,0.00,weatherlink.com 1.10,2013-02-25 18:04:00,
2013-02-25 10:19:00,44.8,44.0,30.24,SSE,163,0.0,0.0,96,0.00,,,0.00,weatherlink.com 1.10,2013-02-25 18:19:00,
2013-02-25 10:34:00,48.0,46.0,30.24,NE,40,1.0,3.0,91,0.00,,,0.00,weatherlink.com 1.10,2013-02-25 18:34:00,
2013-02-25 10:49:00,51.8,44.0,30.23,East,95,1.0,4.0,75,0.00,,,0.00,weatherlink.com 1.10,2013-02-25 18:49:00,
2013-02-25 11:04:00,54.9,44.0,30.23,SE,134,1.0,4.0,68,0.00,,,0.00,weatherlink.com 1.10,2013-02-25 19:04:00,
2013-02-25 11:19:00,57.0,43.0,30.22,East,96,0.0,3.0,59,0.00,,,0.00,weatherlink.com 1.10,2013-02-25 19:19:00,
2013-02-25 11:34:00,58.2,41.0,30.22,ESE,106,2.0,3.0,53,0.00,,,0.00,weatherlink.com 1.10,2013-02-25 19:34:00,
2013-02-25 11:49:00,58.1,40.0,30.22,NE,56,1.0,5.0,51,0.00,,,0.00,weatherlink.com 1.10,2013-02-25 19:49:00,
2013-02-25 12:04:00,58.9,38.0,30.21,SE,135,1.0,3.0,47,0.00,,,0.00,weatherlink.com 1.10,2013-02-25 20:04:00,
2013-02-25 12:19:00,59.8,38.0,30.21,SE,127,0.0,3.0,44,0.00,,,0.00,weatherlink.com 1.10,2013-02-25 20:19:00,
2013-02-25 12:34:00,61.2,35.0,30.20,ESE,105,1.0,4.0,38,0.00,,,0.00,weatherlink.com 1.10,2013-02-25 20:34:00,
2013-02-25 12:49:00,62.5,36.0,30.20,ESE,105,1.0,4.0,38,0.00,,,0.00,weatherlink.com 1.10,2013-02-25 20:49:00,
2013-02-25 13:04:00,63.3,33.0,30.19,South,183,2.0,7.0,32,0.00,,,0.00,weatherlink.com 1.10,2013-02-25 21:04:00,
2013-02-25 13:19:00,63.5,29.0,30.19,ESE,116,2.0,7.0,27,0.00,,,0.00,weatherlink.com 1.10,2013-02-25 21:19:00,
2013-02-25 13:34:00,63.8,24.0,30.18,ESE,111,1.0,4.0,22,0.00,,,0.00,weatherlink.com 1.10,2013-02-25 21:34:00,
2013-02-25 13:49:00,64.1,33.0,30.18,NNE,26,3.0,4.0,31,0.00,,,0.00,weatherlink.com 1.10,2013-02-25 21:49:00,
2013-02-25 14:04:00,64.3,20.0,30.17,ESE,110,2.0,7.0,18,0.00,,,0.00,weatherlink.com 1.10,2013-02-25 22:04:00,
2013-02-25 14:19:00,64.8,20.0,30.17,SSE,165,2.0,6.0,18,0.00,,,0.00,weatherlink.com 1.10,2013-02-25 22:19:00,
2013-02-25 14:34:00,65.3,23.0,30.17,South,169,2.0,7.0,20,0.00,,,0.00,weatherlink.com 1.10,2013-02-25 22:34:00,
2013-02-25 14:49:00,63.7,32.0,30.17,NNW,342,1.0,3.0,30,0.00,,,0.00,weatherlink.com 1.10,2013-02-25 22:49:00,
2013-02-25 15:04:00,62.8,34.0,30.17,ESE,108,1.0,3.0,34,0.00,,,0.00,weatherlink.com 1.10,2013-02-25 23:04:00,
2013-02-25 15:20:00,62.9,20.0,30.16,SE,129,0.0,5.0,19,0.00,,,0.00,weatherlink.com 1.10,2013-02-25 23:20:00,
2013-02-25 15:35:00,60.4,37.0,30.16,NNE,18,0.0,2.0,42,0.00,,,0.00,weatherlink.com 1.10,2013-02-25 23:35:00,
2013-02-25 15:50:00,58.3,37.0,30.15,NNE,16,1.0,4.0,46,0.00,,,0.00,weatherlink.com 1.10,2013-02-25 23:50:00,
2013-02-25 16:05:00,58.8,37.0,30.15,NNE,17,0.0,6.0,45,0.00,,,0.00,weatherlink.com 1.10,2013-02-26 00:05:00,
2013-02-25 16:20:00,57.7,38.0,30.15,SE,139,1.0,3.0,48,0.00,,,0.00,weatherlink.com 1.10,2013-02-26 00:20:00,
2013-02-25 16:35:00,56.4,39.0,30.15,NNE,20,2.0,2.0,52,0.00,,,0.00,weatherlink.com 1.10,2013-02-26 00:35:00,
2013-02-25 16:50:00,55.2,39.0,30.14,North,11,1.0,2.0,55,0.00,,,0.00,weatherlink.com 1.10,2013-02-26 00:50:00,
2013-02-25 17:05:00,54.4,37.0,30.14,North,11,1.0,2.0,53,0.00,,,0.00,weatherlink.com 1.10,2013-02-26 01:05:00,
2013-02-25 17:20:00,53.7,38.0,30.14,North,11,0.0,3.0,56,0.00,,,0.00,weatherlink.com 1.10,2013-02-26 01:20:00,
2013-02-25 17:35:00,53.0,37.0,30.14,North,352,0.0,0.0,56,0.00,,,0.00,weatherlink.com 1.10,2013-02-26 01:35:00,
2013-02-25 17:50:00,52.3,36.0,30.15,NNE,12,1.0,1.0,55,0.00,,,0.00,weatherlink.com 1.10,2013-02-26 01:50:00,
2013-02-25 18:05:00,51.5,39.0,30.15,NNE,12,0.0,1.0,63,0.00,,,0.00,weatherlink.com 1.10,2013-02-26 02:05:00,
2013-02-25 18:20:00,50.8,38.0,30.16,NNE,12,0.0,0.0,61,0.00,,,0.00,weatherlink.com 1.10,2013-02-26 02:20:00,
2013-02-25 18:35:00,49.9,36.0,30.18,NNE,12,0.0,0.0,59,0.00,,,0.00,weatherlink.com 1.10,2013-02-26 02:35:00,
2013-02-25 18:50:00,49.1,38.0,30.18,NNE,13,0.0,0.0,66,0.00,,,0.00,weatherlink.com 1.10,2013-02-26 02:50:00,
2013-02-25 19:05:00,48.3,37.0,30.19,NNE,13,0.0,0.0,64,0.00,,,0.00,weatherlink.com 1.10,2013-02-26 03:05:00,
2013-02-25 19:20:00,47.7,36.0,30.19,NNE,13,0.0,0.0,65,0.00,,,0.00,weatherlink.com 1.10,2013-02-26 03:20:00,
2013-02-25 19:35:00,47.0,36.0,30.20,NNE,13,0.0,0.0,65,0.00,,,0.00,weatherlink.com 1.10,2013-02-26 03:35:00,
2013-02-25 19:50:00,46.5,36.0,30.20,NNE,13,0.0,1.0,68,0.00,,,0.00,weatherlink.com 1.10,2013-02-26 03:50:00,
2013-02-25 20:05:00,45.9,35.0,30.21,NNE,13,0.0,0.0,66,0.00,,,0.00,weatherlink.com 1.10,2013-02-26 04:05:00,
2013-02-25 20:20:00,45.3,36.0,30.21,NNE,13,0.0,0.0,69,0.00,,,0.00,weatherlink.com 1.10,2013-02-26 04:20:00,
2013-02-25 20:35:00,44.8,37.0,30.21,NNE,13,0.0,0.0,73,0.00,,,0.00,weatherlink.com 1.10,2013-02-26 04:35:00,
2013-02-25 20:50:00,44.5,36.0,30.21,NNE,13,0.0,0.0,73,0.00,,,0.00,weatherlink.com 1.10,2013-02-26 04:50:00,
2013-02-25 21:05:00,44.1,37.0,30.21,South,191,0.0,0.0,75,0.00,,,0.00,weatherlink.com 1.10,2013-02-26 05:05:00,
2013-02-25 21:20:00,43.5,36.0,30.21,South,191,0.0,0.0,75,0.00,,,0.00,weatherlink.com 1.10,2013-02-26 05:20:00,
2013-02-25 21:35:00,43.1,36.0,30.21,SW,217,0.0,1.0,77,0.00,,,0.00,weatherlink.com 1.10,2013-02-26 05:35:00,
2013-02-25 21:50:00,42.8,36.0,30.21,SW,217,0.0,0.0,78,0.00,,,0.00,weatherlink.com 1.10,2013-02-26 05:50:00,
2013-02-25 22:05:00,42.2,36.0,30.22,SW,214,0.0,1.0,78,0.00,,,0.00,weatherlink.com 1.10,2013-02-26 06:05:00,
2013-02-25 22:20:00,41.7,36.0,30.22,South,181,0.0,0.0,79,0.00,,,0.00,weatherlink.com 1.10,2013-02-26 06:20:00,
2013-02-25 22:35:00,41.4,36.0,30.23,South,179,0.0,0.0,80,0.00,,,0.00,weatherlink.com 1.10,2013-02-26 06:35:00,
2013-02-25 22:50:00,41.2,36.0,30.23,South,184,0.0,0.0,81,0.00,,,0.00,weatherlink.com 1.10,2013-02-26 06:50:00,
2013-02-25 23:05:00,40.8,35.0,30.23,SW,222,0.0,0.0,81,0.00,,,0.00,weatherlink.com 1.10,2013-02-26 07:05:00,
2013-02-25 23:20:00,40.5,35.0,30.23,SW,222,0.0,0.0,82,0.00,,,0.00,weatherlink.com 1.10,2013-02-26 07:20:00,
2013-02-25 23:35:00,40.1,35.0,30.23,SSW,207,0.0,0.0,82,0.00,,,0.00,weatherlink.com 1.10,2013-02-26 07:35:00,
2013-02-25 23:50:00,39.9,35.0,30.22,SSW,204,0.0,0.0,83,0.00,,,0.00,weatherlink.com 1.10,2013-02-26 07:50:00,